Champlin, Illinois
Current Conditions -  °F | °C
As of 4:55 PM on Tuesday 27 Jan 2015 (Local Time) from KPNT Reporting Station
Haze Haze  
Wind Chill: 31°   Ceiling: 1900
Heat Index: 31°   Visibility: 4mi
Dew Point: 29°   Wind: 0mph
Humidity: 92%   Direction: NA
Pressure: 30.24"   Gusts: NA
Location:  40.7318°N, 88.524°W
Report Text: KPNT 272255Z AUTO 00000KT 4SM BR SCT011 OVC019 00/M02 A3024 RMK AO2 T10041016
Loading
Personal Weather Stations






























Interactive Weather Map New forecast layout! Learn more

10-Day Weather Forecast

Advertisements
Track Severe Weather on mobile